sensor_id;sensor_type;location;lat;lon;timestamp;P1;durP1;ratioP1;P2;durP2;ratioP2
78563;SDS011;67856;47.754;19.088;2023-03-03T00:00:25;9.00;;;5.70;;
78563;SDS011;67856;47.754;19.088;2023-03-03T00:03:27;11.10;;;6.67;;
78563;SDS011;67856;47.754;19.088;2023-03-03T00:06:30;12.93;;;7.20;;
78563;SDS011;67856;47.754;19.088;2023-03-03T00:09:32;9.68;;;6.28;;
78563;SDS011;67856;47.754;19.088;2023-03-03T00:12:35;10.90;;;6.55;;
78563;SDS011;67856;47.754;19.088;2023-03-03T00:15:38;10.93;;;6.13;;
78563;SDS011;67856;47.754;19.088;2023-03-03T00:18:42;10.87;;;6.00;;
78563;SDS011;67856;47.754;19.088;2023-03-03T00:21:49;10.13;;;5.63;;
78563;SDS011;67856;47.754;19.088;2023-03-03T00:24:57;10.48;;;6.18;;
78563;SDS011;67856;47.754;19.088;2023-03-03T00:28:48;9.77;;;5.95;;
78563;SDS011;67856;47.754;19.088;2023-03-03T00:31:28;10.07;;;5.90;;
78563;SDS011;67856;47.754;19.088;2023-03-03T00:34:35;10.03;;;6.27;;
78563;SDS011;67856;47.754;19.088;2023-03-03T00:37:38;11.93;;;6.37;;
78563;SDS011;67856;47.754;19.088;2023-03-03T00:40:42;10.68;;;6.03;;
78563;SDS011;67856;47.754;19.088;2023-03-03T00:43:44;10.52;;;5.97;;
78563;SDS011;67856;47.754;19.088;2023-03-03T00:46:47;10.43;;;6.32;;
78563;SDS011;67856;47.754;19.088;2023-03-03T00:49:49;12.00;;;6.60;;
78563;SDS011;67856;47.754;19.088;2023-03-03T00:52:59;10.67;;;6.10;;
78563;SDS011;67856;47.754;19.088;2023-03-03T00:56:02;10.00;;;5.75;;
78563;SDS011;67856;47.754;19.088;2023-03-03T00:59:04;9.40;;;5.95;;
78563;SDS011;67856;47.754;19.088;2023-03-03T01:02:08;10.45;;;6.10;;
78563;SDS011;67856;47.754;19.088;2023-03-03T01:05:15;9.30;;;5.73;;
78563;SDS011;67856;47.754;19.088;2023-03-03T01:08:18;11.30;;;5.77;;
78563;SDS011;67856;47.754;19.088;2023-03-03T01:11:22;10.40;;;6.07;;
78563;SDS011;67856;47.754;19.088;2023-03-03T01:14:26;10.40;;;5.68;;
78563;SDS011;67856;47.754;19.088;2023-03-03T01:17:28;9.88;;;6.18;;
78563;SDS011;67856;47.754;19.088;2023-03-03T01:20:31;8.70;;;5.73;;
78563;SDS011;67856;47.754;19.088;2023-03-03T01:23:33;8.77;;;5.97;;
78563;SDS011;67856;47.754;19.088;2023-03-03T01:26:36;9.93;;;5.78;;
78563;SDS011;67856;47.754;19.088;2023-03-03T01:29:39;8.15;;;5.70;;
78563;SDS011;67856;47.754;19.088;2023-03-03T01:32:41;11.60;;;6.15;;
78563;SDS011;67856;47.754;19.088;2023-03-03T01:35:44;11.10;;;5.90;;
78563;SDS011;67856;47.754;19.088;2023-03-03T01:38:48;10.27;;;6.13;;
78563;SDS011;67856;47.754;19.088;2023-03-03T01:41:50;9.60;;;6.07;;
78563;SDS011;67856;47.754;19.088;2023-03-03T01:45:15;11.82;;;6.53;;
78563;SDS011;67856;47.754;19.088;2023-03-03T01:48:24;9.95;;;6.10;;
78563;SDS011;67856;47.754;19.088;2023-03-03T01:51:29;11.80;;;6.50;;
78563;SDS011;67856;47.754;19.088;2023-03-03T01:54:38;8.80;;;5.73;;
78563;SDS011;67856;47.754;19.088;2023-03-03T01:57:45;10.30;;;5.90;;
78563;SDS011;67856;47.754;19.088;2023-03-03T02:00:52;10.23;;;6.45;;
78563;SDS011;67856;47.754;19.088;2023-03-03T02:03:56;11.07;;;6.40;;
78563;SDS011;67856;47.754;19.088;2023-03-03T02:06:59;10.03;;;6.07;;
78563;SDS011;67856;47.754;19.088;2023-03-03T02:10:06;10.87;;;6.70;;
78563;SDS011;67856;47.754;19.088;2023-03-03T02:13:12;11.65;;;6.63;;
78563;SDS011;67856;47.754;19.088;2023-03-03T02:16:15;10.88;;;6.45;;
78563;SDS011;67856;47.754;19.088;2023-03-03T02:19:23;10.20;;;6.55;;
78563;SDS011;67856;47.754;19.088;2023-03-03T02:22:38;11.87;;;6.67;;
78563;SDS011;67856;47.754;19.088;2023-03-03T02:25:48;10.03;;;6.70;;
78563;SDS011;67856;47.754;19.088;2023-03-03T02:28:59;11.70;;;6.70;;
78563;SDS011;67856;47.754;19.088;2023-03-03T02:32:03;10.20;;;6.22;;
78563;SDS011;67856;47.754;19.088;2023-03-03T02:38:47;11.90;;;6.70;;
78563;SDS011;67856;47.754;19.088;2023-03-03T02:42:10;10.80;;;6.10;;
78563;SDS011;67856;47.754;19.088;2023-03-03T02:45:19;9.90;;;6.05;;
78563;SDS011;67856;47.754;19.088;2023-03-03T02:48:23;11.60;;;6.70;;
78563;SDS011;67856;47.754;19.088;2023-03-03T02:51:25;9.68;;;5.97;;
78563;SDS011;67856;47.754;19.088;2023-03-03T02:54:28;10.83;;;6.13;;
78563;SDS011;67856;47.754;19.088;2023-03-03T02:57:33;9.53;;;6.30;;
78563;SDS011;67856;47.754;19.088;2023-03-03T03:00:35;11.68;;;6.32;;
78563;SDS011;67856;47.754;19.088;2023-03-03T03:03:38;10.75;;;6.00;;
78563;SDS011;67856;47.754;19.088;2023-03-03T03:06:41;10.23;;;6.30;;
78563;SDS011;67856;47.754;19.088;2023-03-03T03:09:46;9.57;;;6.10;;
78563;SDS011;67856;47.754;19.088;2023-03-03T03:12:48;10.40;;;6.30;;
78563;SDS011;67856;47.754;19.088;2023-03-03T03:15:51;10.18;;;6.05;;
78563;SDS011;67856;47.754;19.088;2023-03-03T03:18:53;13.13;;;6.57;;
78563;SDS011;67856;47.754;19.088;2023-03-03T03:21:56;9.52;;;5.85;;
78563;SDS011;67856;47.754;19.088;2023-03-03T03:24:59;9.50;;;5.83;;
78563;SDS011;67856;47.754;19.088;2023-03-03T03:28:01;8.67;;;5.77;;
78563;SDS011;67856;47.754;19.088;2023-03-03T03:31:05;9.38;;;5.88;;
78563;SDS011;67856;47.754;19.088;2023-03-03T03:34:08;9.32;;;6.07;;
78563;SDS011;67856;47.754;19.088;2023-03-03T03:37:11;9.13;;;5.60;;
78563;SDS011;67856;47.754;19.088;2023-03-03T03:40:13;9.77;;;6.30;;
78563;SDS011;67856;47.754;19.088;2023-03-03T03:43:16;8.23;;;5.80;;
78563;SDS011;67856;47.754;19.088;2023-03-03T03:46:18;8.18;;;5.50;;
78563;SDS011;67856;47.754;19.088;2023-03-03T03:49:21;9.13;;;6.03;;
78563;SDS011;67856;47.754;19.088;2023-03-03T03:52:25;9.05;;;5.30;;
78563;SDS011;67856;47.754;19.088;2023-03-03T03:55:28;10.00;;;5.83;;
78563;SDS011;67856;47.754;19.088;2023-03-03T03:58:30;8.77;;;5.40;;
78563;SDS011;67856;47.754;19.088;2023-03-03T04:01:37;9.93;;;6.20;;
78563;SDS011;67856;47.754;19.088;2023-03-03T04:04:39;9.18;;;5.65;;
78563;SDS011;67856;47.754;19.088;2023-03-03T04:07:42;9.65;;;5.90;;
78563;SDS011;67856;47.754;19.088;2023-03-03T04:10:45;8.40;;;5.13;;
78563;SDS011;67856;47.754;19.088;2023-03-03T04:13:47;7.77;;;4.90;;
78563;SDS011;67856;47.754;19.088;2023-03-03T04:16:50;7.43;;;4.70;;
78563;SDS011;67856;47.754;19.088;2023-03-03T04:19:53;9.02;;;5.13;;
78563;SDS011;67856;47.754;19.088;2023-03-03T04:22:56;7.55;;;4.88;;
78563;SDS011;67856;47.754;19.088;2023-03-03T04:25:59;7.30;;;4.63;;
78563;SDS011;67856;47.754;19.088;2023-03-03T04:29:02;7.67;;;5.20;;
78563;SDS011;67856;47.754;19.088;2023-03-03T04:32:04;7.90;;;4.85;;
78563;SDS011;67856;47.754;19.088;2023-03-03T04:35:07;8.32;;;4.60;;
78563;SDS011;67856;47.754;19.088;2023-03-03T04:38:14;6.50;;;4.40;;
78563;SDS011;67856;47.754;19.088;2023-03-03T04:41:17;7.83;;;4.90;;
78563;SDS011;67856;47.754;19.088;2023-03-03T04:44:20;6.53;;;4.40;;
78563;SDS011;67856;47.754;19.088;2023-03-03T04:47:23;6.78;;;4.65;;
78563;SDS011;67856;47.754;19.088;2023-03-03T04:50:27;7.00;;;4.70;;
78563;SDS011;67856;47.754;19.088;2023-03-03T04:53:29;6.40;;;4.47;;
78563;SDS011;67856;47.754;19.088;2023-03-03T04:56:32;6.83;;;4.47;;
78563;SDS011;67856;47.754;19.088;2023-03-03T04:59:34;7.97;;;4.87;;
78563;SDS011;67856;47.754;19.088;2023-03-03T05:02:37;6.60;;;4.78;;
78563;SDS011;67856;47.754;19.088;2023-03-03T05:05:40;10.18;;;5.55;;
78563;SDS011;67856;47.754;19.088;2023-03-03T05:08:43;10.40;;;5.78;;
78563;SDS011;67856;47.754;19.088;2023-03-03T05:11:46;17.23;;;6.50;;
78563;SDS011;67856;47.754;19.088;2023-03-03T05:14:48;19.37;;;6.93;;
78563;SDS011;67856;47.754;19.088;2023-03-03T05:17:51;22.67;;;7.35;;
78563;SDS011;67856;47.754;19.088;2023-03-03T05:20:54;13.98;;;6.03;;
78563;SDS011;67856;47.754;19.088;2023-03-03T05:23:56;12.57;;;6.25;;
78563;SDS011;67856;47.754;19.088;2023-03-03T05:26:59;15.67;;;6.83;;
78563;SDS011;67856;47.754;19.088;2023-03-03T05:30:01;16.17;;;6.67;;
78563;SDS011;67856;47.754;19.088;2023-03-03T05:33:04;14.07;;;6.78;;
78563;SDS011;67856;47.754;19.088;2023-03-03T05:36:07;11.00;;;6.30;;
78563;SDS011;67856;47.754;19.088;2023-03-03T05:39:09;14.85;;;6.80;;
78563;SDS011;67856;47.754;19.088;2023-03-03T05:42:12;11.30;;;6.37;;
78563;SDS011;67856;47.754;19.088;2023-03-03T05:45:14;16.00;;;6.43;;
78563;SDS011;67856;47.754;19.088;2023-03-03T05:48:17;16.15;;;6.07;;
78563;SDS011;67856;47.754;19.088;2023-03-03T05:51:19;12.88;;;6.10;;
78563;SDS011;67856;47.754;19.088;2023-03-03T05:54:21;13.30;;;6.13;;
78563;SDS011;67856;47.754;19.088;2023-03-03T05:57:24;14.07;;;6.77;;
78563;SDS011;67856;47.754;19.088;2023-03-03T06:00:26;12.87;;;6.70;;
78563;SDS011;67856;47.754;19.088;2023-03-03T06:03:29;10.27;;;6.63;;
78563;SDS011;67856;47.754;19.088;2023-03-03T06:06:33;14.25;;;7.03;;
78563;SDS011;67856;47.754;19.088;2023-03-03T06:09:35;13.50;;;7.30;;
78563;SDS011;67856;47.754;19.088;2023-03-03T06:12:38;14.47;;;6.90;;
78563;SDS011;67856;47.754;19.088;2023-03-03T06:15:42;15.27;;;6.80;;
78563;SDS011;67856;47.754;19.088;2023-03-03T06:18:44;11.07;;;6.93;;
78563;SDS011;67856;47.754;19.088;2023-03-03T06:21:47;12.38;;;6.53;;
78563;SDS011;67856;47.754;19.088;2023-03-03T06:24:49;12.50;;;6.78;;
78563;SDS011;67856;47.754;19.088;2023-03-03T06:27:53;12.80;;;6.40;;
78563;SDS011;67856;47.754;19.088;2023-03-03T06:30:55;12.83;;;6.70;;
78563;SDS011;67856;47.754;19.088;2023-03-03T06:33:58;9.95;;;6.15;;
78563;SDS011;67856;47.754;19.088;2023-03-03T06:37:00;11.60;;;6.63;;
78563;SDS011;67856;47.754;19.088;2023-03-03T06:40:03;15.05;;;6.80;;
78563;SDS011;67856;47.754;19.088;2023-03-03T06:43:06;14.93;;;6.73;;
78563;SDS011;67856;47.754;19.088;2023-03-03T06:46:08;15.43;;;6.90;;
78563;SDS011;67856;47.754;19.088;2023-03-03T06:49:11;12.75;;;6.63;;
78563;SDS011;67856;47.754;19.088;2023-03-03T06:52:16;15.63;;;7.30;;
78563;SDS011;67856;47.754;19.088;2023-03-03T06:55:22;13.10;;;7.20;;
78563;SDS011;67856;47.754;19.088;2023-03-03T06:58:24;12.97;;;6.93;;
78563;SDS011;67856;47.754;19.088;2023-03-03T07:01:33;16.90;;;7.60;;
78563;SDS011;67856;47.754;19.088;2023-03-03T07:04:37;15.10;;;8.07;;
78563;SDS011;67856;47.754;19.088;2023-03-03T07:07:40;20.10;;;7.35;;
78563;SDS011;67856;47.754;19.088;2023-03-03T07:10:43;17.63;;;8.05;;
78563;SDS011;67856;47.754;19.088;2023-03-03T07:13:48;17.90;;;7.57;;
78563;SDS011;67856;47.754;19.088;2023-03-03T07:16:55;18.30;;;7.90;;
78563;SDS011;67856;47.754;19.088;2023-03-03T07:19:59;20.92;;;7.50;;
78563;SDS011;67856;47.754;19.088;2023-03-03T07:23:13;51.63;;;10.18;;
78563;SDS011;67856;47.754;19.088;2023-03-03T07:26:24;61.13;;;10.70;;
78563;SDS011;67856;47.754;19.088;2023-03-03T07:29:36;48.77;;;9.63;;
78563;SDS011;67856;47.754;19.088;2023-03-03T07:32:42;42.00;;;9.27;;
78563;SDS011;67856;47.754;19.088;2023-03-03T07:35:46;45.15;;;9.38;;
78563;SDS011;67856;47.754;19.088;2023-03-03T07:38:52;44.45;;;9.02;;
78563;SDS011;67856;47.754;19.088;2023-03-03T07:41:59;35.42;;;8.95;;
78563;SDS011;67856;47.754;19.088;2023-03-03T07:45:28;30.67;;;8.53;;
78563;SDS011;67856;47.754;19.088;2023-03-03T07:48:34;31.10;;;7.93;;
78563;SDS011;67856;47.754;19.088;2023-03-03T07:51:38;35.75;;;8.27;;
78563;SDS011;67856;47.754;19.088;2023-03-03T07:54:46;35.17;;;8.25;;
78563;SDS011;67856;47.754;19.088;2023-03-03T07:57:49;30.67;;;7.95;;
78563;SDS011;67856;47.754;19.088;2023-03-03T08:04:25;26.23;;;8.33;;
78563;SDS011;67856;47.754;19.088;2023-03-03T08:07:31;34.70;;;7.93;;
78563;SDS011;67856;47.754;19.088;2023-03-03T08:10:38;24.38;;;7.68;;
78563;SDS011;67856;47.754;19.088;2023-03-03T08:13:45;26.48;;;7.78;;
78563;SDS011;67856;47.754;19.088;2023-03-03T08:16:48;23.67;;;7.83;;
78563;SDS011;67856;47.754;19.088;2023-03-03T08:19:50;26.40;;;7.97;;
78563;SDS011;67856;47.754;19.088;2023-03-03T08:22:54;32.53;;;8.00;;
78563;SDS011;67856;47.754;19.088;2023-03-03T08:25:56;24.42;;;8.05;;
78563;SDS011;67856;47.754;19.088;2023-03-03T08:28:59;28.63;;;8.73;;
78563;SDS011;67856;47.754;19.088;2023-03-03T08:32:02;26.30;;;7.93;;
78563;SDS011;67856;47.754;19.088;2023-03-03T08:35:05;26.33;;;8.70;;
78563;SDS011;67856;47.754;19.088;2023-03-03T08:38:08;27.58;;;8.95;;
78563;SDS011;67856;47.754;19.088;2023-03-03T08:41:11;31.75;;;9.60;;
78563;SDS011;67856;47.754;19.088;2023-03-03T08:44:14;25.80;;;8.90;;
78563;SDS011;67856;47.754;19.088;2023-03-03T08:47:17;24.37;;;8.33;;
78563;SDS011;67856;47.754;19.088;2023-03-03T08:50:19;29.20;;;8.97;;
78563;SDS011;67856;47.754;19.088;2023-03-03T08:53:22;27.25;;;8.73;;
78563;SDS011;67856;47.754;19.088;2023-03-03T08:56:25;22.48;;;8.38;;
78563;SDS011;67856;47.754;19.088;2023-03-03T08:59:27;26.75;;;9.38;;
78563;SDS011;67856;47.754;19.088;2023-03-03T09:02:30;32.70;;;8.87;;
78563;SDS011;67856;47.754;19.088;2023-03-03T09:05:33;23.83;;;8.27;;
78563;SDS011;67856;47.754;19.088;2023-03-03T09:08:36;26.33;;;9.60;;
78563;SDS011;67856;47.754;19.088;2023-03-03T09:11:39;32.15;;;8.73;;
78563;SDS011;67856;47.754;19.088;2023-03-03T09:14:41;25.42;;;8.57;;
78563;SDS011;67856;47.754;19.088;2023-03-03T09:17:44;27.53;;;9.03;;
78563;SDS011;67856;47.754;19.088;2023-03-03T09:20:48;25.13;;;8.97;;
78563;SDS011;67856;47.754;19.088;2023-03-03T09:23:53;25.67;;;8.73;;
78563;SDS011;67856;47.754;19.088;2023-03-03T09:26:57;55.03;;;9.63;;
78563;SDS011;67856;47.754;19.088;2023-03-03T09:30:44;26.15;;;8.77;;
78563;SDS011;67856;47.754;19.088;2023-03-03T09:33:41;45.93;;;8.87;;
78563;SDS011;67856;47.754;19.088;2023-03-03T09:36:44;25.50;;;8.33;;
78563;SDS011;67856;47.754;19.088;2023-03-03T09:39:51;25.40;;;8.45;;
78563;SDS011;67856;47.754;19.088;2023-03-03T09:43:08;22.67;;;8.35;;
78563;SDS011;67856;47.754;19.088;2023-03-03T09:53:41;26.10;;;8.10;;
78563;SDS011;67856;47.754;19.088;2023-03-03T10:07:45;28.13;;;9.23;;
78563;SDS011;67856;47.754;19.088;2023-03-03T10:13:42;35.42;;;10.13;;
78563;SDS011;67856;47.754;19.088;2023-03-03T10:23:54;26.40;;;9.73;;
78563;SDS011;67856;47.754;19.088;2023-03-03T10:34:12;30.27;;;9.20;;
78563;SDS011;67856;47.754;19.088;2023-03-03T10:37:23;27.42;;;9.20;;
78563;SDS011;67856;47.754;19.088;2023-03-03T11:13:43;23.67;;;8.43;;
78563;SDS011;67856;47.754;19.088;2023-03-03T11:16:57;31.40;;;9.10;;
78563;SDS011;67856;47.754;19.088;2023-03-03T11:26:57;26.25;;;9.05;;
78563;SDS011;67856;47.754;19.088;2023-03-03T11:43:55;24.10;;;8.65;;
78563;SDS011;67856;47.754;19.088;2023-03-03T11:50:30;31.63;;;9.00;;
78563;SDS011;67856;47.754;19.088;2023-03-03T11:54:09;21.30;;;8.27;;
78563;SDS011;67856;47.754;19.088;2023-03-03T11:57:22;20.15;;;8.20;;
78563;SDS011;67856;47.754;19.088;2023-03-03T12:03:55;21.13;;;8.60;;
78563;SDS011;67856;47.754;19.088;2023-03-03T12:10:26;24.50;;;8.57;;
78563;SDS011;67856;47.754;19.088;2023-03-03T12:20:13;25.17;;;8.07;;
78563;SDS011;67856;47.754;19.088;2023-03-03T12:23:27;14.73;;;7.40;;
78563;SDS011;67856;47.754;19.088;2023-03-03T12:26:42;28.58;;;8.18;;
78563;SDS011;67856;47.754;19.088;2023-03-03T12:40:19;21.73;;;7.83;;
78563;SDS011;67856;47.754;19.088;2023-03-03T12:43:33;15.70;;;7.72;;
78563;SDS011;67856;47.754;19.088;2023-03-03T12:46:43;26.17;;;7.50;;
78563;SDS011;67856;47.754;19.088;2023-03-03T12:49:52;25.40;;;8.45;;
78563;SDS011;67856;47.754;19.088;2023-03-03T12:53:16;21.73;;;8.00;;
78563;SDS011;67856;47.754;19.088;2023-03-03T12:59:48;21.02;;;7.65;;
78563;SDS011;67856;47.754;19.088;2023-03-03T13:20:34;17.38;;;7.13;;
78563;SDS011;67856;47.754;19.088;2023-03-03T13:36:22;21.08;;;7.38;;
78563;SDS011;67856;47.754;19.088;2023-03-03T13:39:32;19.17;;;7.10;;
78563;SDS011;67856;47.754;19.088;2023-03-03T13:45:57;18.37;;;7.50;;
78563;SDS011;67856;47.754;19.088;2023-03-03T13:49:10;17.95;;;7.43;;
78563;SDS011;67856;47.754;19.088;2023-03-03T13:52:26;18.65;;;7.22;;
78563;SDS011;67856;47.754;19.088;2023-03-03T13:55:34;16.02;;;6.63;;
78563;SDS011;67856;47.754;19.088;2023-03-03T13:58:44;16.73;;;7.70;;
78563;SDS011;67856;47.754;19.088;2023-03-03T14:02:18;21.60;;;6.90;;
78563;SDS011;67856;47.754;19.088;2023-03-03T14:08:38;18.30;;;7.15;;
78563;SDS011;67856;47.754;19.088;2023-03-03T14:11:55;17.45;;;6.57;;
78563;SDS011;67856;47.754;19.088;2023-03-03T14:15:25;20.97;;;7.63;;
78563;SDS011;67856;47.754;19.088;2023-03-03T14:18:33;14.10;;;6.07;;
78563;SDS011;67856;47.754;19.088;2023-03-03T14:25:04;13.73;;;6.60;;
78563;SDS011;67856;47.754;19.088;2023-03-03T14:28:13;15.77;;;6.57;;
78563;SDS011;67856;47.754;19.088;2023-03-03T14:34:25;21.00;;;7.30;;
78563;SDS011;67856;47.754;19.088;2023-03-03T14:37:44;16.13;;;6.88;;
78563;SDS011;67856;47.754;19.088;2023-03-03T14:40:48;26.40;;;7.63;;
78563;SDS011;67856;47.754;19.088;2023-03-03T14:43:58;22.95;;;7.80;;
78563;SDS011;67856;47.754;19.088;2023-03-03T14:47:22;20.63;;;7.80;;
78563;SDS011;67856;47.754;19.088;2023-03-03T14:50:29;22.17;;;7.53;;
78563;SDS011;67856;47.754;19.088;2023-03-03T14:53:37;27.88;;;8.05;;
78563;SDS011;67856;47.754;19.088;2023-03-03T14:56:53;22.60;;;7.80;;
78563;SDS011;67856;47.754;19.088;2023-03-03T15:00:00;22.15;;;8.05;;
78563;SDS011;67856;47.754;19.088;2023-03-03T15:03:22;32.07;;;7.63;;
78563;SDS011;67856;47.754;19.088;2023-03-03T15:09:49;22.48;;;7.88;;
78563;SDS011;67856;47.754;19.088;2023-03-03T15:12:52;21.38;;;7.80;;
78563;SDS011;67856;47.754;19.088;2023-03-03T15:32:40;19.10;;;7.20;;
78563;SDS011;67856;47.754;19.088;2023-03-03T15:35:53;15.93;;;7.07;;
78563;SDS011;67856;47.754;19.088;2023-03-03T15:42:10;21.73;;;7.30;;
78563;SDS011;67856;47.754;19.088;2023-03-03T15:52:27;16.43;;;6.90;;
78563;SDS011;67856;47.754;19.088;2023-03-03T16:01:51;13.48;;;6.38;;
78563;SDS011;67856;47.754;19.088;2023-03-03T16:05:13;17.30;;;7.05;;
78563;SDS011;67856;47.754;19.088;2023-03-03T16:08:18;14.67;;;6.70;;
78563;SDS011;67856;47.754;19.088;2023-03-03T16:14:46;14.63;;;6.80;;
78563;SDS011;67856;47.754;19.088;2023-03-03T16:21:45;18.80;;;7.38;;
78563;SDS011;67856;47.754;19.088;2023-03-03T16:28:33;27.27;;;7.83;;
78563;SDS011;67856;47.754;19.088;2023-03-03T16:31:42;24.45;;;8.32;;
78563;SDS011;67856;47.754;19.088;2023-03-03T16:35:41;28.27;;;8.40;;
78563;SDS011;67856;47.754;19.088;2023-03-03T16:38:30;22.40;;;7.95;;
78563;SDS011;67856;47.754;19.088;2023-03-03T16:41:54;19.80;;;8.30;;
78563;SDS011;67856;47.754;19.088;2023-03-03T16:45:23;23.37;;;8.17;;
78563;SDS011;67856;47.754;19.088;2023-03-03T16:48:37;26.20;;;8.07;;
78563;SDS011;67856;47.754;19.088;2023-03-03T16:52:02;23.52;;;8.82;;
78563;SDS011;67856;47.754;19.088;2023-03-03T16:55:25;24.95;;;7.75;;
78563;SDS011;67856;47.754;19.088;2023-03-03T17:08:25;20.40;;;7.70;;
78563;SDS011;67856;47.754;19.088;2023-03-03T17:14:49;17.83;;;7.10;;
78563;SDS011;67856;47.754;19.088;2023-03-03T17:18:10;20.87;;;7.57;;
78563;SDS011;67856;47.754;19.088;2023-03-03T17:21:19;19.17;;;7.40;;
78563;SDS011;67856;47.754;19.088;2023-03-03T17:27:38;18.13;;;7.55;;
78563;SDS011;67856;47.754;19.088;2023-03-03T17:31:09;18.43;;;7.20;;
78563;SDS011;67856;47.754;19.088;2023-03-03T17:51:41;18.03;;;7.77;;
78563;SDS011;67856;47.754;19.088;2023-03-03T17:55:23;17.00;;;7.53;;
78563;SDS011;67856;47.754;19.088;2023-03-03T17:58:34;13.38;;;7.20;;
78563;SDS011;67856;47.754;19.088;2023-03-03T18:08:41;18.03;;;8.10;;
78563;SDS011;67856;47.754;19.088;2023-03-03T18:12:05;21.33;;;8.90;;
78563;SDS011;67856;47.754;19.088;2023-03-03T18:19:25;21.23;;;9.30;;
78563;SDS011;67856;47.754;19.088;2023-03-03T18:25:51;18.17;;;10.03;;
78563;SDS011;67856;47.754;19.088;2023-03-03T18:32:18;20.60;;;10.88;;
78563;SDS011;67856;47.754;19.088;2023-03-03T18:35:24;20.75;;;10.73;;
78563;SDS011;67856;47.754;19.088;2023-03-03T18:38:29;22.07;;;9.57;;
78563;SDS011;67856;47.754;19.088;2023-03-03T18:42:02;15.83;;;8.87;;
78563;SDS011;67856;47.754;19.088;2023-03-03T18:48:13;18.50;;;9.23;;
78563;SDS011;67856;47.754;19.088;2023-03-03T18:51:45;16.83;;;8.45;;
78563;SDS011;67856;47.754;19.088;2023-03-03T19:04:33;16.20;;;8.27;;
78563;SDS011;67856;47.754;19.088;2023-03-03T19:10:46;17.07;;;8.40;;
78563;SDS011;67856;47.754;19.088;2023-03-03T19:13:50;15.73;;;8.40;;
78563;SDS011;67856;47.754;19.088;2023-03-03T19:16:53;14.23;;;8.48;;
78563;SDS011;67856;47.754;19.088;2023-03-03T19:20:20;17.88;;;9.40;;
78563;SDS011;67856;47.754;19.088;2023-03-03T19:27:10;13.80;;;7.27;;
78563;SDS011;67856;47.754;19.088;2023-03-03T19:46:43;14.40;;;7.30;;
78563;SDS011;67856;47.754;19.088;2023-03-03T19:53:51;15.20;;;8.02;;
78563;SDS011;67856;47.754;19.088;2023-03-03T19:57:04;14.65;;;7.88;;
78563;SDS011;67856;47.754;19.088;2023-03-03T20:10:21;13.73;;;8.35;;
78563;SDS011;67856;47.754;19.088;2023-03-03T20:13:55;15.88;;;9.73;;
78563;SDS011;67856;47.754;19.088;2023-03-03T20:17:11;13.57;;;8.23;;
78563;SDS011;67856;47.754;19.088;2023-03-03T20:26:54;16.08;;;9.23;;
78563;SDS011;67856;47.754;19.088;2023-03-03T20:33:18;15.87;;;9.97;;
78563;SDS011;67856;47.754;19.088;2023-03-03T20:36:34;14.90;;;7.67;;
78563;SDS011;67856;47.754;19.088;2023-03-03T20:57:59;11.68;;;7.40;;
78563;SDS011;67856;47.754;19.088;2023-03-03T21:07:22;13.33;;;8.67;;
78563;SDS011;67856;47.754;19.088;2023-03-03T21:10:28;13.73;;;7.63;;
78563;SDS011;67856;47.754;19.088;2023-03-03T21:13:42;15.07;;;8.13;;
78563;SDS011;67856;47.754;19.088;2023-03-03T21:16:46;12.98;;;8.05;;
78563;SDS011;67856;47.754;19.088;2023-03-03T21:19:49;13.07;;;7.97;;
78563;SDS011;67856;47.754;19.088;2023-03-03T21:22:53;15.60;;;8.80;;
78563;SDS011;67856;47.754;19.088;2023-03-03T21:25:56;16.73;;;8.17;;
78563;SDS011;67856;47.754;19.088;2023-03-03T21:28:59;14.88;;;8.90;;
78563;SDS011;67856;47.754;19.088;2023-03-03T21:32:05;13.02;;;7.78;;
78563;SDS011;67856;47.754;19.088;2023-03-03T21:35:10;13.25;;;8.48;;
78563;SDS011;67856;47.754;19.088;2023-03-03T21:38:34;14.53;;;8.63;;
78563;SDS011;67856;47.754;19.088;2023-03-03T21:41:54;18.07;;;10.20;;
78563;SDS011;67856;47.754;19.088;2023-03-03T21:45:07;16.80;;;9.35;;
78563;SDS011;67856;47.754;19.088;2023-03-03T21:48:10;19.67;;;10.88;;
78563;SDS011;67856;47.754;19.088;2023-03-03T21:51:13;17.00;;;9.77;;
78563;SDS011;67856;47.754;19.088;2023-03-03T21:54:15;14.13;;;8.80;;
78563;SDS011;67856;47.754;19.088;2023-03-03T21:57:18;16.77;;;8.93;;
78563;SDS011;67856;47.754;19.088;2023-03-03T22:00:20;17.48;;;9.50;;
78563;SDS011;67856;47.754;19.088;2023-03-03T22:03:23;15.98;;;9.25;;
78563;SDS011;67856;47.754;19.088;2023-03-03T22:06:25;22.02;;;12.98;;
78563;SDS011;67856;47.754;19.088;2023-03-03T22:09:28;16.40;;;8.97;;
78563;SDS011;67856;47.754;19.088;2023-03-03T22:12:30;16.47;;;9.47;;
78563;SDS011;67856;47.754;19.088;2023-03-03T22:15:32;13.63;;;8.50;;
78563;SDS011;67856;47.754;19.088;2023-03-03T22:18:35;13.55;;;8.35;;
78563;SDS011;67856;47.754;19.088;2023-03-03T22:21:37;15.65;;;9.48;;
78563;SDS011;67856;47.754;19.088;2023-03-03T22:24:40;13.10;;;7.97;;
78563;SDS011;67856;47.754;19.088;2023-03-03T22:27:42;16.43;;;9.13;;
78563;SDS011;67856;47.754;19.088;2023-03-03T22:30:45;18.73;;;10.20;;
78563;SDS011;67856;47.754;19.088;2023-03-03T22:33:47;19.33;;;11.35;;
78563;SDS011;67856;47.754;19.088;2023-03-03T22:36:50;15.85;;;9.82;;
78563;SDS011;67856;47.754;19.088;2023-03-03T22:39:52;15.90;;;9.37;;
78563;SDS011;67856;47.754;19.088;2023-03-03T22:42:54;17.63;;;10.50;;
78563;SDS011;67856;47.754;19.088;2023-03-03T22:45:57;15.00;;;9.48;;
78563;SDS011;67856;47.754;19.088;2023-03-03T22:48:59;15.10;;;9.80;;
78563;SDS011;67856;47.754;19.088;2023-03-03T22:52:02;19.90;;;10.50;;
78563;SDS011;67856;47.754;19.088;2023-03-03T22:55:04;16.77;;;10.20;;
78563;SDS011;67856;47.754;19.088;2023-03-03T22:58:07;17.30;;;10.00;;
78563;SDS011;67856;47.754;19.088;2023-03-03T23:01:10;15.05;;;9.02;;
78563;SDS011;67856;47.754;19.088;2023-03-03T23:04:12;14.60;;;8.70;;
78563;SDS011;67856;47.754;19.088;2023-03-03T23:07:15;17.10;;;9.18;;
78563;SDS011;67856;47.754;19.088;2023-03-03T23:10:18;15.27;;;8.97;;
78563;SDS011;67856;47.754;19.088;2023-03-03T23:13:21;15.57;;;9.93;;
78563;SDS011;67856;47.754;19.088;2023-03-03T23:16:24;14.15;;;9.13;;
78563;SDS011;67856;47.754;19.088;2023-03-03T23:19:26;15.85;;;9.75;;
78563;SDS011;67856;47.754;19.088;2023-03-03T23:22:28;15.23;;;9.55;;
78563;SDS011;67856;47.754;19.088;2023-03-03T23:25:31;17.53;;;10.10;;
78563;SDS011;67856;47.754;19.088;2023-03-03T23:28:33;15.47;;;8.50;;
78563;SDS011;67856;47.754;19.088;2023-03-03T23:31:36;13.68;;;7.95;;
78563;SDS011;67856;47.754;19.088;2023-03-03T23:34:38;15.18;;;9.02;;
78563;SDS011;67856;47.754;19.088;2023-03-03T23:37:41;16.42;;;9.60;;
78563;SDS011;67856;47.754;19.088;2023-03-03T23:40:43;14.47;;;8.57;;
78563;SDS011;67856;47.754;19.088;2023-03-03T23:43:47;15.27;;;8.20;;
78563;SDS011;67856;47.754;19.088;2023-03-03T23:46:50;13.57;;;7.95;;
78563;SDS011;67856;47.754;19.088;2023-03-03T23:49:52;13.02;;;8.05;;
78563;SDS011;67856;47.754;19.088;2023-03-03T23:52:54;14.32;;;8.43;;
78563;SDS011;67856;47.754;19.088;2023-03-03T23:55:57;12.77;;;8.30;;
78563;SDS011;67856;47.754;19.088;2023-03-03T23:58:59;19.17;;;10.63;;
